Terminal Aerodrome Forecast
Issued by NWS Sioux Falls, SD

Home | Current Version | Previous Version | Text Only | Print | Product List | Glossary On
Versions: 1 2 3 4 5 6 7 8 9 10 11 12 13
000
FTUS43 KFSD 292102 AAA
TAFHON
TAF AMD
KHON 292102Z 2921/3018 34016G25KT P6SM OVC025
     FM292230 35015G22KT P6SM SCT022
     FM300000 01008KT P6SM FEW200
     FM300300 VRB04KT P6SM SCT150
     FM301200 17012KT P6SM SKC=

USA.gov is the U.S. government's official web portal to all federal, state and local government web resources and services.